Time;durP1;ratioP1;P1;durP2;ratioP2;P2;SDS_P1;SDS_P2;PMS_P1;PMS_P2;Temp;Humidity;BMP_temperature;BMP_pressure;BME280_temperature;BME280_humidity;BME280_pressure;Samples;Min_cycle;Max_cycle;Signal;HPM_P1;HPM_P2
2023/06/13 00:01:22;;;;;;;;;;;26.70;29.80;;;;;;5072367;28;19913;-53
2023/06/13 00:03:49;;;;;;;;;;;26.70;29.00;;;;;;5053117;28;19913;-53
2023/06/13 00:06:17;;;;;;;;;;;26.70;28.80;;;;;;5064182;28;19936;-52
2023/06/13 00:08:43;;;;;;;;;;;26.70;28.70;;;;;;5072406;28;20012;-52
2023/06/13 00:11:08;;;;;;;;;;;26.70;29.10;;;;;;5069209;28;20003;-53
2023/06/13 00:13:34;;;;;;;;;;;26.60;28.70;;;;;;5070874;28;19927;-53
2023/06/13 00:16:00;;;;;;;;;;;26.70;28.90;;;;;;5072457;28;19918;-53
2023/06/13 00:18:29;;;;;;;;;;;26.60;28.60;;;;;;5072819;28;19955;-53
2023/06/13 00:20:54;;;;;;;;;;;26.70;29.00;;;;;;5071694;28;19952;-52
2023/06/13 00:23:20;;;;;;;;;;;26.70;28.90;;;;;;5070031;28;19959;-52
2023/06/13 00:25:45;;;;;;;;;;;26.70;29.50;;;;;;5070698;28;19941;-52
2023/06/13 00:28:11;;;;;;;;;;;26.70;28.80;;;;;;5072417;28;19924;-53
2023/06/13 00:30:36;;;;;;;;;;;26.60;28.70;;;;;;5061521;28;19988;-52
2023/06/13 00:33:04;;;;;;;;;;;26.70;28.80;;;;;;5071084;28;19952;-53
2023/06/13 00:35:30;;;;;;;;;;;26.70;29.30;;;;;;5071938;28;19916;-52
2023/06/13 00:37:57;;;;;;;;;;;26.70;29.10;;;;;;5071305;28;19919;-53
2023/06/13 00:40:22;;;;;;;;;;;26.60;28.80;;;;;;5071072;28;19920;-52
2023/06/13 00:42:49;;;;;;;;;;;26.60;28.70;;;;;;5071549;28;19917;-52
2023/06/13 00:45:17;;;;;;;;;;;26.60;28.70;;;;;;5071677;28;19960;-53
2023/06/13 00:47:43;;;;;;;;;;;26.60;29.00;;;;;;5071904;28;20441;-52
2023/06/13 00:50:09;;;;;;;;;;;26.60;29.00;;;;;;5071549;28;19923;-53
2023/06/13 00:52:35;;;;;;;;;;;26.50;28.80;;;;;;5066658;28;20300;-52
2023/06/13 00:55:01;;;;;;;;;;;26.60;28.80;;;;;;5070743;28;19920;-53
2023/06/13 00:57:26;;;;;;;;;;;26.60;28.80;;;;;;5070350;28;19912;-53
2023/06/13 00:59:52;;;;;;;;;;;26.60;28.80;;;;;;5060967;28;19962;-52
2023/06/13 01:02:20;;;;;;;;;;;26.60;28.90;;;;;;5065848;28;19912;-52
2023/06/13 01:04:48;;;;;;;;;;;26.60;28.90;;;;;;5069240;28;19919;-52
2023/06/13 01:07:14;;;;;;;;;;;26.60;28.90;;;;;;5069358;28;19919;-52
2023/06/13 01:09:39;;;;;;;;;;;26.60;28.80;;;;;;5058459;28;19916;-52
2023/06/13 01:12:10;;;;;;;;;;;26.50;29.00;;;;;;5070628;28;20386;-52
2023/06/13 01:14:41;;;;;;;;;;;26.50;29.20;;;;;;5098735;28;19921;-52
2023/06/13 01:17:27;;;;;;;;;;;26.50;28.90;;;;;;5107188;28;19912;-52
2023/06/13 01:19:53;;;;;;;;;;;26.50;29.60;;;;;;5080139;28;19920;-52
2023/06/13 01:22:20;;;;;;;;;;;26.40;29.00;;;;;;5071757;28;19917;-52
2023/06/13 01:24:56;;;;;;;;;;;26.30;29.10;;;;;;5068612;28;20340;-52
2023/06/13 01:27:22;;;;;;;;;;;26.30;29.10;;;;;;5055650;28;19924;-52
2023/06/13 01:29:47;;;;;;;;;;;26.20;29.10;;;;;;5069939;28;19924;-52
2023/06/13 01:32:13;;;;;;;;;;;26.20;29.20;;;;;;5070086;28;20281;-52
2023/06/13 01:34:39;;;;;;;;;;;26.20;29.50;;;;;;5070744;28;19975;-53
2023/06/13 01:37:05;;;;;;;;;;;26.10;29.30;;;;;;5078408;28;19917;-53
2023/06/13 01:39:32;;;;;;;;;;;26.20;29.60;;;;;;5043102;28;19920;-52
2023/06/13 01:41:58;;;;;;;;;;;26.20;30.40;;;;;;5070914;28;19920;-52
2023/06/13 01:44:23;;;;;;;;;;;26.20;29.50;;;;;;5071055;28;20073;-52
2023/06/13 01:47:07;;;;;;;;;;;26.10;29.50;;;;;;5071701;28;19935;-52
2023/06/13 01:50:02;;;;;;;;;;;26.10;29.60;;;;;;5071236;28;19935;-52
2023/06/13 01:52:35;;;;;;;;;;;26.10;29.50;;;;;;5050866;28;20446;-52
2023/06/13 01:55:04;;;;;;;;;;;26.00;29.70;;;;;;5070057;28;19912;-52
2023/06/13 01:57:32;;;;;;;;;;;26.00;29.90;;;;;;5071420;28;19985;-52
2023/06/13 01:59:58;;;;;;;;;;;25.90;30.00;;;;;;5105899;28;20354;-52
2023/06/13 02:02:23;;;;;;;;;;;25.90;29.80;;;;;;5074934;28;19913;-52
2023/06/13 02:04:49;;;;;;;;;;;25.90;30.10;;;;;;5106185;28;19928;-53
2023/06/13 02:07:14;;;;;;;;;;;25.80;30.60;;;;;;5074289;28;19963;-52
2023/06/13 02:09:40;;;;;;;;;;;25.90;30.20;;;;;;5072459;28;19924;-52
2023/06/13 02:12:06;;;;;;;;;;;25.80;30.20;;;;;;5074739;28;19916;-52
2023/06/13 02:14:32;;;;;;;;;;;25.90;30.00;;;;;;5074409;28;19912;-52
2023/06/13 02:16:59;;;;;;;;;;;25.80;30.00;;;;;;5074514;28;19999;-52
2023/06/13 02:19:25;;;;;;;;;;;25.70;30.10;;;;;;5074373;28;19959;-52
2023/06/13 02:21:51;;;;;;;;;;;25.60;30.20;;;;;;5074548;28;20343;-53
2023/06/13 02:24:18;;;;;;;;;;;25.60;30.60;;;;;;5074492;28;20406;-52
2023/06/13 02:26:44;;;;;;;;;;;25.60;30.30;;;;;;5073102;28;19913;-52
2023/06/13 02:29:09;;;;;;;;;;;25.50;30.70;;;;;;5074814;28;19924;-52
2023/06/13 02:31:40;;;;;;;;;;;25.40;30.90;;;;;;5073947;28;19912;-52
2023/06/13 02:34:06;;;;;;;;;;;25.40;31.40;;;;;;5073261;28;20387;-53
2023/06/13 02:36:31;;;;;;;;;;;25.40;31.10;;;;;;5073970;28;19917;-52
2023/06/13 02:38:57;;;;;;;;;;;25.40;31.00;;;;;;5074015;28;19920;-53
2023/06/13 02:41:22;;;;;;;;;;;25.50;31.30;;;;;;5072124;28;19999;-52
2023/06/13 02:43:48;;;;;;;;;;;25.50;31.50;;;;;;5070740;28;19925;-52
2023/06/13 02:46:13;;;;;;;;;;;25.50;31.40;;;;;;5072764;28;19992;-53
2023/06/13 02:48:39;;;;;;;;;;;25.50;31.80;;;;;;5071261;28;19942;-53
2023/06/13 02:51:07;;;;;;;;;;;25.40;31.60;;;;;;5070200;28;20535;-52
2023/06/13 02:53:33;;;;;;;;;;;25.30;32.00;;;;;;5073891;28;19916;-52
2023/06/13 02:55:58;;;;;;;;;;;25.30;32.20;;;;;;5066591;28;19920;-52
2023/06/13 02:58:23;;;;;;;;;;;25.30;32.50;;;;;;5073997;28;19919;-52
2023/06/13 03:00:49;;;;;;;;;;;25.30;32.30;;;;;;5072521;28;19924;-52
2023/06/13 03:03:16;;;;;;;;;;;25.20;32.80;;;;;;5066198;28;19923;-52
2023/06/13 03:05:44;;;;;;;;;;;25.10;32.90;;;;;;5069298;28;19912;-52
2023/06/13 03:08:11;;;;;;;;;;;25.20;33.20;;;;;;5073159;28;19939;-52
2023/06/13 03:10:36;;;;;;;;;;;25.30;33.00;;;;;;5069541;28;19913;-52
2023/06/13 03:13:02;;;;;;;;;;;25.30;33.20;;;;;;5072123;28;20269;-52
2023/06/13 03:15:27;;;;;;;;;;;25.20;33.20;;;;;;5071896;28;19917;-51
2023/06/13 03:17:53;;;;;;;;;;;25.30;33.60;;;;;;5073282;28;19946;-52
2023/06/13 03:20:21;;;;;;;;;;;25.20;33.40;;;;;;5073715;28;19966;-53
2023/06/13 03:22:46;;;;;;;;;;;25.30;33.80;;;;;;5073516;28;19912;-52
2023/06/13 03:25:12;;;;;;;;;;;25.30;33.60;;;;;;5068726;28;20026;-53
2023/06/13 03:27:37;;;;;;;;;;;25.30;33.80;;;;;;5073168;28;20006;-52
2023/06/13 03:30:03;;;;;;;;;;;25.30;34.00;;;;;;5073229;28;20365;-53
2023/06/13 03:32:29;;;;;;;;;;;25.40;33.90;;;;;;5073408;28;19931;-52
2023/06/13 03:34:55;;;;;;;;;;;25.40;33.90;;;;;;5073312;28;19923;-52
2023/06/13 03:37:20;;;;;;;;;;;25.40;34.10;;;;;;5073424;28;19991;-52
2023/06/13 03:39:45;;;;;;;;;;;25.30;34.30;;;;;;5069190;28;19924;-52
2023/06/13 03:42:11;;;;;;;;;;;25.40;34.30;;;;;;5073377;28;19912;-52
2023/06/13 03:44:36;;;;;;;;;;;25.40;34.40;;;;;;5072895;28;19955;-53
2023/06/13 03:47:02;;;;;;;;;;;25.40;34.50;;;;;;5073129;28;20365;-52
2023/06/13 03:49:27;;;;;;;;;;;25.40;34.60;;;;;;5073159;28;20364;-52
2023/06/13 03:51:53;;;;;;;;;;;25.40;34.60;;;;;;5072556;28;19927;-53
2023/06/13 03:54:18;;;;;;;;;;;25.40;34.60;;;;;;5071403;28;20379;-52
2023/06/13 03:56:44;;;;;;;;;;;25.50;34.70;;;;;;5072364;28;20023;-52
2023/06/13 03:59:10;;;;;;;;;;;25.50;34.80;;;;;;5072863;28;20370;-52
2023/06/13 04:01:35;;;;;;;;;;;25.40;34.90;;;;;;5072435;28;19913;-52
2023/06/13 04:04:01;;;;;;;;;;;25.40;34.90;;;;;;5056652;28;19928;-52
2023/06/13 04:06:28;;;;;;;;;;;25.40;34.90;;;;;;5072244;28;19912;-52
2023/06/13 04:08:54;;;;;;;;;;;25.40;35.10;;;;;;5072491;28;19920;-52
2023/06/13 04:11:19;;;;;;;;;;;25.50;35.00;;;;;;5069842;28;19924;-52
2023/06/13 04:13:45;;;;;;;;;;;25.50;35.10;;;;;;5072080;28;19925;-53
2023/06/13 04:16:10;;;;;;;;;;;25.50;35.30;;;;;;5072418;28;19919;-52
2023/06/13 04:18:37;;;;;;;;;;;25.50;35.30;;;;;;5064662;28;19913;-52
2023/06/13 04:21:03;;;;;;;;;;;25.50;35.70;;;;;;5066584;28;20297;-52
2023/06/13 04:23:29;;;;;;;;;;;25.50;35.40;;;;;;5071988;28;19912;-52
2023/06/13 04:25:55;;;;;;;;;;;25.50;35.30;;;;;;5071228;28;19923;-52
2023/06/13 04:28:24;;;;;;;;;;;25.50;35.60;;;;;;5072262;28;19913;-52
2023/06/13 04:30:51;;;;;;;;;;;25.50;35.70;;;;;;5071998;28;19952;-52
2023/06/13 04:33:17;;;;;;;;;;;25.50;35.90;;;;;;5071266;28;19920;-52
2023/06/13 04:35:48;;;;;;;;;;;25.50;36.10;;;;;;5071824;28;19912;-52
2023/06/13 04:38:18;;;;;;;;;;;25.50;36.10;;;;;;5100263;28;19916;-52
2023/06/13 04:40:43;;;;;;;;;;;25.50;36.40;;;;;;5070883;28;20292;-53
2023/06/13 04:43:09;;;;;;;;;;;25.40;36.50;;;;;;5071671;28;19921;-52
2023/06/13 04:45:36;;;;;;;;;;;25.40;36.60;;;;;;5061906;28;19917;-52
2023/06/13 04:48:03;;;;;;;;;;;25.40;36.70;;;;;;5069570;28;20292;-52
2023/06/13 04:50:28;;;;;;;;;;;25.40;36.70;;;;;;5071570;28;19924;-52
2023/06/13 04:52:57;;;;;;;;;;;25.20;37.20;;;;;;5071415;28;19920;-52
2023/06/13 04:55:25;;;;;;;;;;;25.10;37.60;;;;;;5069822;28;20377;-52
2023/06/13 04:57:51;;;;;;;;;;;25.10;37.70;;;;;;5071859;28;19941;-53
2023/06/13 05:00:17;;;;;;;;;;;25.10;37.80;;;;;;5093193;28;19919;-51
2023/06/13 05:02:42;;;;;;;;;;;25.00;38.20;;;;;;5073193;28;19999;-52
2023/06/13 05:05:08;;;;;;;;;;;25.00;38.60;;;;;;5070667;28;19916;-52
2023/06/13 05:07:34;;;;;;;;;;;25.00;38.60;;;;;;5070468;28;19912;-52
2023/06/13 05:10:03;;;;;;;;;;;25.00;38.90;;;;;;5094622;28;19916;-51
2023/06/13 05:12:29;;;;;;;;;;;25.00;38.80;;;;;;5065333;28;19917;-52
2023/06/13 05:14:54;;;;;;;;;;;25.00;39.00;;;;;;5071117;28;19923;-52
2023/06/13 05:17:20;;;;;;;;;;;25.00;39.00;;;;;;5071624;28;19981;-52
2023/06/13 05:19:46;;;;;;;;;;;25.10;39.00;;;;;;5071028;28;20394;-51
2023/06/13 05:22:12;;;;;;;;;;;25.10;39.10;;;;;;5059064;28;19913;-52
2023/06/13 05:24:37;;;;;;;;;;;25.10;39.20;;;;;;5064479;28;19928;-51
2023/06/13 05:27:03;;;;;;;;;;;25.10;39.10;;;;;;5071309;28;20235;-52
2023/06/13 05:29:28;;;;;;;;;;;25.10;39.40;;;;;;5068909;28;19916;-52
2023/06/13 05:31:53;;;;;;;;;;;25.10;39.30;;;;;;5066029;28;19920;-52
2023/06/13 05:34:20;;;;;;;;;;;25.10;39.50;;;;;;5066960;28;19958;-52
2023/06/13 05:36:45;;;;;;;;;;;25.10;39.80;;;;;;5069669;28;20378;-52
2023/06/13 05:39:12;;;;;;;;;;;25.10;40.20;;;;;;5069695;28;20049;-52
2023/06/13 05:41:39;;;;;;;;;;;25.20;40.00;;;;;;5071045;28;20007;-51
2023/06/13 05:44:04;;;;;;;;;;;25.20;40.20;;;;;;5080460;28;20384;-52
2023/06/13 05:46:29;;;;;;;;;;;25.20;40.50;;;;;;5069610;28;19927;-52
2023/06/13 05:48:55;;;;;;;;;;;25.10;40.70;;;;;;5071362;28;20319;-51
2023/06/13 05:51:20;;;;;;;;;;;25.10;41.00;;;;;;5061327;28;20331;-52
2023/06/13 05:53:46;;;;;;;;;;;25.00;41.10;;;;;;5065053;28;20289;-52
2023/06/13 05:56:11;;;;;;;;;;;24.90;41.50;;;;;;5067958;28;19966;-52
2023/06/13 05:58:37;;;;;;;;;;;24.90;41.70;;;;;;5070022;28;19916;-51
2023/06/13 06:01:03;;;;;;;;;;;24.90;41.90;;;;;;5065451;28;19909;-52
2023/06/13 06:03:29;;;;;;;;;;;24.90;42.00;;;;;;5057697;28;19913;-52
2023/06/13 06:05:55;;;;;;;;;;;24.90;42.20;;;;;;5060991;28;19924;-52
2023/06/13 06:08:20;;;;;;;;;;;24.90;42.20;;;;;;5048301;28;19913;-52
2023/06/13 06:10:45;;;;;;;;;;;24.90;42.30;;;;;;5069229;28;19967;-52
2023/06/13 06:13:11;;;;;;;;;;;24.90;42.50;;;;;;5070269;28;19920;-52
2023/06/13 06:15:36;;;;;;;;;;;24.90;42.30;;;;;;5064485;28;19913;-53
2023/06/13 06:18:02;;;;;;;;;;;24.90;42.50;;;;;;5051236;28;19920;-54
2023/06/13 06:20:28;;;;;;;;;;;24.90;42.50;;;;;;5050880;28;19913;-53
2023/06/13 06:22:53;;;;;;;;;;;25.10;42.30;;;;;;5044934;28;19921;-53
2023/06/13 06:25:19;;;;;;;;;;;25.10;42.10;;;;;;5054746;28;19919;-53
2023/06/13 06:27:48;;;;;;;;;;;25.00;42.20;;;;;;5057999;28;19916;-54
2023/06/13 06:30:14;;;;;;;;;;;24.90;42.20;;;;;;5058704;28;19926;-53
2023/06/13 06:32:39;;;;;;;;;;;24.90;41.90;;;;;;5057391;28;20315;-53
2023/06/13 06:35:05;;;;;;;;;;;25.00;41.90;;;;;;5059630;28;19912;-53
2023/06/13 06:37:31;;;;;;;;;;;25.10;41.50;;;;;;5061638;28;19923;-54
2023/06/13 06:39:56;;;;;;;;;;;25.00;41.70;;;;;;5060729;28;19957;-53
2023/06/13 06:42:22;;;;;;;;;;;24.90;40.80;;;;;;5069909;28;19908;-54
2023/06/13 06:44:48;;;;;;;;;;;24.80;40.60;;;;;;5066603;28;19921;-54
2023/06/13 06:47:14;;;;;;;;;;;24.80;41.10;;;;;;5064760;28;20369;-53
2023/06/13 06:49:40;;;;;;;;;;;24.70;40.20;;;;;;5060480;28;19917;-54
2023/06/13 06:52:06;;;;;;;;;;;24.80;40.20;;;;;;5067338;28;19931;-53
2023/06/13 06:54:31;;;;;;;;;;;24.90;39.90;;;;;;5058120;28;20027;-54
2023/06/13 06:56:56;;;;;;;;;;;24.90;39.40;;;;;;5067829;28;20395;-53
2023/06/13 06:59:22;;;;;;;;;;;24.90;39.30;;;;;;5091960;28;20490;-54
2023/06/13 07:01:48;;;;;;;;;;;24.90;39.10;;;;;;5062131;28;20323;-54
2023/06/13 07:04:13;;;;;;;;;;;24.90;39.10;;;;;;5067907;28;20272;-54
2023/06/13 07:06:38;;;;;;;;;;;24.80;39.20;;;;;;5066336;28;19916;-53
2023/06/13 07:09:04;;;;;;;;;;;24.70;39.30;;;;;;5057960;28;19928;-54
2023/06/13 07:11:29;;;;;;;;;;;24.70;39.40;;;;;;5064433;28;20002;-53
2023/06/13 07:13:55;;;;;;;;;;;24.70;39.10;;;;;;5052765;28;19925;-53
2023/06/13 07:16:21;;;;;;;;;;;24.80;39.10;;;;;;5068385;28;20331;-54
2023/06/13 07:18:47;;;;;;;;;;;24.70;39.10;;;;;;5081815;28;19917;-56
2023/06/13 07:21:12;;;;;;;;;;;24.80;39.10;;;;;;5092184;27;19994;-54
2023/06/13 07:23:38;;;;;;;;;;;24.90;39.00;;;;;;5060800;28;19943;-53
2023/06/13 07:26:03;;;;;;;;;;;24.90;39.00;;;;;;5062991;28;19942;-53
2023/06/13 07:28:29;;;;;;;;;;;24.90;39.20;;;;;;5057558;28;19913;-54
2023/06/13 07:30:55;;;;;;;;;;;24.90;39.20;;;;;;5057579;28;19923;-54
2023/06/13 07:33:21;;;;;;;;;;;24.90;39.30;;;;;;5060382;28;19928;-53
2023/06/13 07:35:47;;;;;;;;;;;24.80;39.50;;;;;;5065494;28;20293;-54
2023/06/13 07:38:12;;;;;;;;;;;24.90;39.50;;;;;;5059301;28;19913;-54
2023/06/13 07:40:38;;;;;;;;;;;25.00;39.60;;;;;;5065518;28;19917;-54
2023/06/13 07:43:03;;;;;;;;;;;25.00;39.30;;;;;;5070265;28;20391;-54
2023/06/13 07:45:28;;;;;;;;;;;25.00;39.30;;;;;;5063244;28;19912;-54
2023/06/13 07:47:54;;;;;;;;;;;25.10;39.30;;;;;;5058171;28;20661;-54
2023/06/13 07:50:20;;;;;;;;;;;25.10;39.30;;;;;;5060362;28;19920;-55
2023/06/13 07:52:45;;;;;;;;;;;25.10;39.30;;;;;;5063982;28;19941;-54
2023/06/13 07:55:11;;;;;;;;;;;25.20;39.40;;;;;;5063458;28;19922;-54
2023/06/13 07:57:36;;;;;;;;;;;25.20;39.30;;;;;;5060754;28;20284;-54
2023/06/13 08:00:06;;;;;;;;;;;25.10;39.30;;;;;;5062678;28;19913;-53
2023/06/13 08:02:34;;;;;;;;;;;25.10;39.20;;;;;;5063665;28;19913;-54
2023/06/13 08:04:59;;;;;;;;;;;25.10;39.10;;;;;;5067502;28;20256;-53
2023/06/13 08:07:25;;;;;;;;;;;25.10;38.90;;;;;;5058902;28;19913;-54
2023/06/13 08:09:51;;;;;;;;;;;25.10;39.00;;;;;;5061492;28;19912;-54
2023/06/13 08:12:16;;;;;;;;;;;25.10;38.80;;;;;;5058416;28;19978;-54
2023/06/13 08:14:42;;;;;;;;;;;25.20;38.70;;;;;;5065387;28;19999;-54
2023/06/13 08:17:07;;;;;;;;;;;25.20;38.70;;;;;;5074419;28;19916;-54
2023/06/13 08:19:33;;;;;;;;;;;25.20;39.20;;;;;;5090921;28;19913;-52
2023/06/13 08:21:58;;;;;;;;;;;25.10;38.30;;;;;;5060166;28;19913;-51
2023/06/13 08:24:24;;;;;;;;;;;25.10;38.20;;;;;;5096985;28;20251;-51
2023/06/13 08:26:50;;;;;;;;;;;25.00;38.20;;;;;;5068798;28;20003;-50
2023/06/13 08:29:17;;;;;;;;;;;25.00;37.70;;;;;;5073432;28;20011;-52
2023/06/13 08:31:43;;;;;;;;;;;25.10;37.80;;;;;;5060945;28;19939;-51
2023/06/13 08:34:09;;;;;;;;;;;25.10;37.70;;;;;;5067262;28;19931;-51
2023/06/13 08:36:36;;;;;;;;;;;25.20;37.70;;;;;;5067484;28;20008;-52
2023/06/13 08:39:01;;;;;;;;;;;25.20;37.70;;;;;;5068372;28;19913;-52
2023/06/13 08:41:27;;;;;;;;;;;25.30;37.80;;;;;;5049764;28;20285;-52
2023/06/13 08:43:53;;;;;;;;;;;25.30;38.50;;;;;;5061700;28;19916;-52
2023/06/13 08:46:18;;;;;;;;;;;25.40;37.80;;;;;;5069720;28;19913;-55
2023/06/13 08:48:43;;;;;;;;;;;25.50;37.90;;;;;;5089517;28;19912;-52
2023/06/13 08:51:16;;;;;;;;;;;25.50;37.90;;;;;;5056642;28;20003;-51
2023/06/13 08:53:45;;;;;;;;;;;25.50;37.90;;;;;;5056699;28;20296;-53
2023/06/13 08:56:11;;;;;;;;;;;25.50;37.90;;;;;;5061711;28;19920;-53
2023/06/13 08:58:37;;;;;;;;;;;25.50;38.00;;;;;;5059489;28;19913;-51
2023/06/13 09:01:04;;;;;;;;;;;25.50;38.20;;;;;;5056010;28;20018;-54
2023/06/13 09:03:30;;;;;;;;;;;25.50;38.10;;;;;;5058886;28;19924;-50
2023/06/13 09:05:55;;;;;;;;;;;25.50;38.30;;;;;;5092883;28;19920;-50
2023/06/13 09:08:21;;;;;;;;;;;25.60;38.00;;;;;;5056848;28;19913;-52
2023/06/13 09:10:46;;;;;;;;;;;25.70;38.10;;;;;;5053432;28;20555;-52
2023/06/13 09:13:12;;;;;;;;;;;25.70;38.40;;;;;;5089864;28;19917;-53
2023/06/13 09:15:37;;;;;;;;;;;25.80;38.80;;;;;;5095865;28;19979;-51
2023/06/13 09:18:03;;;;;;;;;;;25.80;38.40;;;;;;5064362;28;19916;-51
2023/06/13 09:20:30;;;;;;;;;;;25.90;38.20;;;;;;5052468;28;20006;-53
2023/06/13 09:22:56;;;;;;;;;;;25.80;38.10;;;;;;5069339;28;19913;-52
2023/06/13 09:25:22;;;;;;;;;;;25.90;37.90;;;;;;5071309;28;19920;-52
2023/06/13 09:27:47;;;;;;;;;;;25.90;37.70;;;;;;5065792;28;20003;-52
2023/06/13 09:30:16;;;;;;;;;;;25.90;38.50;;;;;;5083285;28;19908;-53
2023/06/13 09:32:51;;;;;;;;;;;25.90;37.80;;;;;;5062873;28;19916;-52
2023/06/13 09:35:17;;;;;;;;;;;26.00;37.70;;;;;;5062679;28;19913;-52
2023/06/13 09:37:44;;;;;;;;;;;26.00;37.50;;;;;;5057636;28;20253;-52
2023/06/13 09:40:10;;;;;;;;;;;26.00;37.40;;;;;;5066846;28;19963;-52
2023/06/13 09:42:35;;;;;;;;;;;26.10;37.00;;;;;;5064616;28;20009;-52
2023/06/13 09:45:02;;;;;;;;;;;26.00;37.10;;;;;;5067023;28;19928;-53
2023/06/13 09:47:27;;;;;;;;;;;26.00;37.00;;;;;;5056362;28;20376;-52
2023/06/13 09:49:56;;;;;;;;;;;26.10;37.00;;;;;;5090392;28;20013;-53
2023/06/13 09:52:25;;;;;;;;;;;26.10;37.00;;;;;;5097142;28;19982;-53
2023/06/13 09:54:51;;;;;;;;;;;26.10;36.40;;;;;;5065429;28;19917;-52
2023/06/13 09:57:17;;;;;;;;;;;26.10;36.20;;;;;;5071440;28;19916;-53
2023/06/13 09:59:43;;;;;;;;;;;26.10;36.10;;;;;;5056440;28;20042;-51
2023/06/13 10:02:09;;;;;;;;;;;26.00;35.70;;;;;;5064332;28;19921;-51
2023/06/13 10:04:34;;;;;;;;;;;26.10;35.50;;;;;;5055144;28;20289;-52
2023/06/13 10:07:01;;;;;;;;;;;26.10;35.40;;;;;;5093204;28;19964;-52
2023/06/13 10:09:27;;;;;;;;;;;26.20;35.40;;;;;;5062033;28;19912;-53
2023/06/13 10:11:52;;;;;;;;;;;26.20;35.40;;;;;;5053713;28;19919;-54
2023/06/13 10:14:19;;;;;;;;;;;26.20;35.80;;;;;;5058463;28;19963;-53
2023/06/13 10:16:46;;;;;;;;;;;26.20;35.90;;;;;;5062104;28;20091;-52
2023/06/13 10:19:11;;;;;;;;;;;26.30;35.80;;;;;;5068267;28;19917;-51
2023/06/13 10:21:37;;;;;;;;;;;26.20;35.70;;;;;;5089463;28;19939;-52
2023/06/13 10:24:02;;;;;;;;;;;26.40;35.70;;;;;;5097945;27;20430;-51
2023/06/13 10:26:40;;;;;;;;;;;26.50;35.40;;;;;;5058525;28;19919;-51
2023/06/13 10:29:18;;;;;;;;;;;26.50;35.40;;;;;;5102049;28;20033;-54
2023/06/13 10:32:10;;;;;;;;;;;26.50;35.60;;;;;;5065890;28;20010;-53
2023/06/13 10:34:40;;;;;;;;;;;26.50;35.70;;;;;;5055799;28;19986;-52
2023/06/13 10:37:08;;;;;;;;;;;26.40;36.00;;;;;;5091618;28;19916;-53
2023/06/13 10:39:55;;;;;;;;;;;26.50;36.10;;;;;;5069368;28;20002;-53
2023/06/13 10:42:22;;;;;;;;;;;26.60;36.10;;;;;;5097406;28;19916;-52
2023/06/13 10:44:50;;;;;;;;;;;26.60;36.40;;;;;;5067441;28;19920;-54
2023/06/13 10:47:18;;;;;;;;;;;26.60;36.60;;;;;;5065767;28;19927;-53
2023/06/13 10:49:45;;;;;;;;;;;26.50;36.70;;;;;;5063789;28;19934;-52
2023/06/13 10:52:11;;;;;;;;;;;26.60;36.80;;;;;;5098488;27;19987;-53
2023/06/13 10:54:36;;;;;;;;;;;26.60;36.90;;;;;;5067206;28;19932;-53
2023/06/13 10:57:02;;;;;;;;;;;26.60;36.60;;;;;;5091694;27;20288;-52
2023/06/13 10:59:36;;;;;;;;;;;26.70;36.50;;;;;;5097110;28;20003;-52
2023/06/13 11:02:01;;;;;;;;;;;26.70;36.20;;;;;;5064995;28;19913;-52
2023/06/13 11:04:27;;;;;;;;;;;26.60;36.40;;;;;;5060458;28;19919;-52
2023/06/13 11:06:54;;;;;;;;;;;26.60;35.90;;;;;;5062710;28;20012;-53
2023/06/13 11:09:20;;;;;;;;;;;26.70;35.80;;;;;;5085650;28;19943;-52
2023/06/13 11:11:50;;;;;;;;;;;26.80;35.70;;;;;;5057395;28;19970;-52
2023/06/13 11:14:16;;;;;;;;;;;26.80;35.60;;;;;;5065656;28;19972;-53
2023/06/13 11:16:43;;;;;;;;;;;26.80;35.60;;;;;;5058798;28;19920;-52
2023/06/13 11:19:21;;;;;;;;;;;26.90;35.70;;;;;;5065917;28;19920;-52
2023/06/13 11:21:50;;;;;;;;;;;26.90;35.70;;;;;;5070608;28;19920;-53
2023/06/13 11:24:15;;;;;;;;;;;26.90;35.90;;;;;;5065119;28;19917;-53
2023/06/13 11:26:44;;;;;;;;;;;26.80;36.10;;;;;;5063406;28;20332;-53
2023/06/13 11:29:10;;;;;;;;;;;26.70;36.00;;;;;;5054592;28;19921;-53
2023/06/13 11:31:36;;;;;;;;;;;26.80;35.90;;;;;;5064410;28;19962;-53
2023/06/13 11:34:03;;;;;;;;;;;26.90;35.90;;;;;;5062940;28;20348;-53
2023/06/13 11:36:28;;;;;;;;;;;27.00;35.70;;;;;;5071250;28;19954;-53
2023/06/13 11:38:57;;;;;;;;;;;27.00;35.70;;;;;;5092628;28;19912;-53
2023/06/13 11:41:22;;;;;;;;;;;27.10;35.60;;;;;;5058160;28;20369;-52
2023/06/13 11:43:48;;;;;;;;;;;27.10;35.20;;;;;;5057066;28;19931;-52
2023/06/13 11:46:13;;;;;;;;;;;27.00;35.10;;;;;;5062984;28;20394;-52
2023/06/13 11:48:39;;;;;;;;;;;27.00;34.90;;;;;;5072980;28;19908;-54
2023/06/13 11:51:11;;;;;;;;;;;27.00;34.40;;;;;;5064403;28;20506;-53
2023/06/13 11:53:49;;;;;;;;;;;27.10;34.00;;;;;;5068911;28;19928;-53
2023/06/13 11:56:15;;;;;;;;;;;27.20;34.10;;;;;;5059510;28;20281;-53
2023/06/13 11:58:40;;;;;;;;;;;27.20;34.10;;;;;;5072824;28;19915;-53
2023/06/13 12:01:06;;;;;;;;;;;27.20;33.50;;;;;;5065670;28;20352;-53
2023/06/13 12:03:37;;;;;;;;;;;27.20;33.40;;;;;;5060654;28;19920;-53
2023/06/13 12:06:05;;;;;;;;;;;27.30;33.40;;;;;;5063900;28;19939;-53
2023/06/13 12:08:32;;;;;;;;;;;27.30;33.20;;;;;;5058485;28;19917;-52
2023/06/13 12:10:58;;;;;;;;;;;27.20;33.30;;;;;;5060049;28;20318;-53
2023/06/13 12:13:23;;;;;;;;;;;27.30;33.40;;;;;;5066092;28;20020;-51
2023/06/13 12:15:49;;;;;;;;;;;27.20;33.50;;;;;;5089779;28;20368;-53
2023/06/13 12:18:14;;;;;;;;;;;27.10;33.30;;;;;;5074195;28;20352;-52
2023/06/13 12:20:46;;;;;;;;;;;27.20;33.30;;;;;;5062147;28;19951;-52
2023/06/13 12:23:11;;;;;;;;;;;27.20;33.30;;;;;;5072226;28;20309;-54
2023/06/13 12:25:37;;;;;;;;;;;27.30;33.40;;;;;;5066917;28;19969;-53
2023/06/13 12:28:03;;;;;;;;;;;27.30;33.20;;;;;;5095357;28;20057;-52
2023/06/13 12:30:35;;;;;;;;;;;27.30;33.10;;;;;;5070466;28;20293;-53
2023/06/13 12:33:01;;;;;;;;;;;27.30;33.10;;;;;;5071720;28;19913;-53
2023/06/13 12:35:29;;;;;;;;;;;27.20;32.70;;;;;;5070266;28;19912;-52
2023/06/13 12:38:04;;;;;;;;;;;27.10;32.40;;;;;;5057453;28;19942;-53
2023/06/13 12:40:32;;;;;;;;;;;27.20;31.50;;;;;;5062707;28;19916;-52
2023/06/13 12:43:00;;;;;;;;;;;27.20;30.40;;;;;;5054178;28;19921;-52
2023/06/13 12:45:27;;;;;;;;;;;27.30;29.70;;;;;;5060593;28;19920;-52
2023/06/13 12:47:56;;;;;;;;;;;27.30;29.70;;;;;;5064585;28;19916;-52
2023/06/13 12:50:25;;;;;;;;;;;27.20;29.70;;;;;;5066359;28;20027;-51
2023/06/13 12:53:06;;;;;;;;;;;27.40;29.60;;;;;;5072766;28;20015;-51
2023/06/13 12:55:35;;;;;;;;;;;27.40;29.70;;;;;;5058973;28;19919;-52
2023/06/13 12:58:01;;;;;;;;;;;27.40;30.40;;;;;;5067411;28;19916;-53
2023/06/13 13:00:27;;;;;;;;;;;27.50;32.00;;;;;;5067662;28;19919;-53
2023/06/13 13:02:52;;;;;;;;;;;27.50;32.20;;;;;;5057257;28;19909;-53
2023/06/13 13:05:18;;;;;;;;;;;27.50;32.80;;;;;;5065350;28;19918;-53
2023/06/13 13:07:43;;;;;;;;;;;27.50;32.70;;;;;;5063452;28;19909;-53
2023/06/13 13:10:09;;;;;;;;;;;27.40;33.00;;;;;;5055987;28;19927;-53
2023/06/13 13:12:34;;;;;;;;;;;27.40;33.50;;;;;;5060961;28;20036;-54
2023/06/13 13:15:00;;;;;;;;;;;27.50;33.80;;;;;;5065022;28;19917;-52
2023/06/13 13:17:25;;;;;;;;;;;27.50;34.40;;;;;;5070488;28;19928;-53
2023/06/13 13:19:53;;;;;;;;;;;27.60;34.80;;;;;;5061001;28;19923;-52
2023/06/13 13:22:21;;;;;;;;;;;27.60;35.20;;;;;;5062334;28;20275;-52
2023/06/13 13:24:46;;;;;;;;;;;27.60;35.60;;;;;;5064069;28;19909;-53
2023/06/13 13:27:12;;;;;;;;;;;27.60;36.00;;;;;;5064960;28;19917;-53
2023/06/13 13:29:37;;;;;;;;;;;27.60;36.10;;;;;;5102941;28;19909;-53
2023/06/13 13:32:03;;;;;;;;;;;27.60;36.10;;;;;;5061823;28;19961;-52
2023/06/13 13:34:29;;;;;;;;;;;27.60;36.20;;;;;;5069634;28;19928;-53
2023/06/13 13:36:55;;;;;;;;;;;27.50;36.40;;;;;;5063459;28;20377;-53
2023/06/13 13:39:20;;;;;;;;;;;27.50;36.50;;;;;;5060002;28;19921;-52
2023/06/13 13:41:46;;;;;;;;;;;27.40;36.60;;;;;;5061325;28;19947;-53
2023/06/13 13:44:11;;;;;;;;;;;27.40;36.50;;;;;;5064101;28;19999;-53
2023/06/13 13:46:37;;;;;;;;;;;27.50;36.60;;;;;;5058968;28;20278;-53
2023/06/13 13:49:02;;;;;;;;;;;27.40;36.60;;;;;;5062315;28;19919;-53
2023/06/13 13:51:29;;;;;;;;;;;27.20;37.00;;;;;;5064739;28;19913;-53
2023/06/13 13:53:55;;;;;;;;;;;27.20;36.90;;;;;;5080547;28;20029;-53
2023/06/13 13:56:20;;;;;;;;;;;27.20;36.80;;;;;;5058870;28;20405;-52
2023/06/13 13:58:46;;;;;;;;;;;27.40;36.60;;;;;;5096929;28;19926;-53
2023/06/13 14:01:11;;;;;;;;;;;27.40;36.60;;;;;;5065919;28;20390;-53
2023/06/13 14:03:37;;;;;;;;;;;27.30;36.40;;;;;;5068160;28;20052;-53
2023/06/13 14:06:03;;;;;;;;;;;27.20;36.50;;;;;;5072262;28;19955;-52
2023/06/13 14:08:28;;;;;;;;;;;27.20;36.00;;;;;;5063431;28;20296;-51
2023/06/13 14:10:53;;;;;;;;;;;27.10;35.60;;;;;;5059400;28;19946;-52
2023/06/13 14:13:19;;;;;;;;;;;27.00;35.10;;;;;;5064625;28;19916;-52